createdAt,value
2022-12-26T00:00:40.099Z,792.40
2022-12-26T00:01:40.057Z,793.06
2022-12-26T00:02:40.399Z,793.35
2022-12-26T00:03:40.228Z,793.93
2022-12-26T00:04:51.823Z,793.40
2022-12-26T00:05:41.022Z,792.81
2022-12-26T00:06:40.057Z,792.20
2022-12-26T00:07:39.983Z,792.37
2022-12-26T00:08:40.015Z,792.34
2022-12-26T00:09:40.245Z,792.54
2022-12-26T00:10:39.952Z,793.35
2022-12-26T00:11:39.943Z,794.39
2022-12-26T00:12:39.979Z,795.82
2022-12-26T00:13:41.658Z,797.49
2022-12-26T00:14:39.908Z,798.24
2022-12-26T00:15:39.910Z,798.61
2022-12-26T00:16:39.946Z,798.75
2022-12-26T00:17:39.869Z,798.43
2022-12-26T00:18:39.869Z,799.16
2022-12-26T00:19:39.869Z,800.25
2022-12-26T00:20:40.104Z,801.19
2022-12-26T00:21:39.852Z,801.18
2022-12-26T00:22:39.811Z,801.28
2022-12-26T00:23:39.826Z,801.47
2022-12-26T00:24:39.789Z,801.65
2022-12-26T00:25:39.787Z,800.91
2022-12-26T00:26:39.803Z,800.65
2022-12-26T00:27:40.744Z,801.35
2022-12-26T00:28:39.754Z,801.98
2022-12-26T00:29:40.559Z,801.99
2022-12-26T00:30:39.739Z,796.08
2022-12-26T00:31:40.966Z,793.29
2022-12-26T00:32:39.704Z,792.78
2022-12-26T00:33:39.726Z,792.87
2022-12-26T00:34:39.672Z,791.33
2022-12-26T00:35:39.663Z,790.36
2022-12-26T00:36:39.655Z,790.38
2022-12-26T00:37:39.664Z,791.20
2022-12-26T00:38:39.640Z,792.84
2022-12-26T00:39:39.628Z,794.70
2022-12-26T00:40:39.904Z,796.14
2022-12-26T00:41:39.606Z,796.82
2022-12-26T00:42:39.589Z,798.02
2022-12-26T00:43:39.600Z,799.24
2022-12-26T00:44:39.835Z,801.17
2022-12-26T00:45:39.555Z,803.00
2022-12-26T00:46:39.631Z,804.97
2022-12-26T00:47:39.536Z,807.27
2022-12-26T00:48:39.523Z,808.74
2022-12-26T00:50:13.193Z,809.06
2022-12-26T00:50:40.523Z,810.00
2022-12-26T00:51:39.528Z,810.03
2022-12-26T00:52:39.480Z,810.12
2022-12-26T00:53:39.480Z,808.24
2022-12-26T00:54:39.464Z,808.10
2022-12-26T00:55:39.429Z,808.24
2022-12-26T00:56:39.430Z,808.61
2022-12-26T00:57:39.987Z,809.00
2022-12-26T00:58:39.427Z,810.15
2022-12-26T00:59:39.395Z,811.73
2022-12-26T01:00:39.406Z,813.49
2022-12-26T01:01:39.620Z,815.52
2022-12-26T01:02:39.951Z,817.71
2022-12-26T01:03:39.340Z,819.62
2022-12-26T01:04:39.651Z,820.87
2022-12-26T01:05:39.331Z,821.01
2022-12-26T01:06:39.317Z,820.93
2022-12-26T01:08:20.330Z,820.25
2022-12-26T01:08:40.325Z,819.47
2022-12-26T01:09:40.053Z,817.19
2022-12-26T01:10:39.276Z,814.67
2022-12-26T01:11:39.296Z,812.97
2022-12-26T01:12:39.294Z,811.39
2022-12-26T01:13:39.249Z,809.96
2022-12-26T01:14:39.801Z,808.79
2022-12-26T01:15:40.230Z,805.38
2022-12-26T01:16:40.062Z,804.09
2022-12-26T01:17:39.890Z,804.31
2022-12-26T01:18:39.940Z,804.62
2022-12-26T01:19:40.363Z,805.46
2022-12-26T01:20:39.158Z,806.35
2022-12-26T01:21:40.180Z,806.99
2022-12-26T01:22:40.139Z,806.21
2022-12-26T01:23:39.127Z,805.97
2022-12-26T01:24:39.885Z,805.23
2022-12-26T01:26:18.729Z,804.45
2022-12-26T01:26:41.895Z,805.08
2022-12-26T01:27:39.097Z,805.42
2022-12-26T01:28:40.021Z,806.07
2022-12-26T01:29:39.142Z,806.83
2022-12-26T01:30:39.058Z,807.58
2022-12-26T01:31:39.092Z,808.73
2022-12-26T01:32:40.109Z,809.08
2022-12-26T01:33:40.051Z,809.61
2022-12-26T01:34:38.982Z,807.97
2022-12-26T01:35:39.856Z,805.75
2022-12-26T01:36:39.759Z,805.58
2022-12-26T01:37:38.964Z,806.55
2022-12-26T01:38:39.154Z,807.61
2022-12-26T01:39:39.128Z,808.34
2022-12-26T01:40:39.253Z,809.78
2022-12-26T01:41:38.916Z,811.21
2022-12-26T01:42:39.686Z,813.04
2022-12-26T01:43:40.095Z,815.04
2022-12-26T01:44:38.892Z,816.41
2022-12-26T01:45:38.913Z,817.21
2022-12-26T01:46:39.822Z,817.97
2022-12-26T01:47:39.747Z,818.88
2022-12-26T01:48:39.616Z,818.84
2022-12-26T01:49:40.041Z,818.92
2022-12-26T01:50:39.951Z,817.48
2022-12-26T01:51:38.787Z,815.28
2022-12-26T01:52:38.797Z,813.75
2022-12-26T01:53:39.734Z,812.55
2022-12-26T01:54:42.645Z,811.39
2022-12-26T01:55:38.743Z,811.18
2022-12-26T01:56:39.897Z,809.75
2022-12-26T01:57:38.736Z,807.41
2022-12-26T01:58:38.710Z,806.27
2022-12-26T01:59:39.590Z,805.94
2022-12-26T02:00:39.530Z,806.57
2022-12-26T02:01:38.802Z,806.94
2022-12-26T02:02:39.946Z,805.69
2022-12-26T02:03:46.913Z,804.32
2022-12-26T02:04:45.922Z,803.72
2022-12-26T02:05:46.704Z,803.85
2022-12-26T02:06:38.615Z,804.41
2022-12-26T02:07:38.628Z,805.01
2022-12-26T02:08:39.169Z,805.74
2022-12-26T02:09:39.656Z,806.42
2022-12-26T02:10:39.560Z,806.80
2022-12-26T02:11:38.613Z,806.01
2022-12-26T02:12:39.620Z,803.63
2022-12-26T02:13:39.769Z,801.97
2022-12-26T02:14:38.544Z,799.24
2022-12-26T02:15:39.605Z,796.05
2022-12-26T02:16:39.545Z,794.58
2022-12-26T02:17:39.399Z,794.17
2022-12-26T02:18:38.924Z,794.93
2022-12-26T02:19:39.215Z,795.14
2022-12-26T02:20:39.477Z,796.00
2022-12-26T02:21:38.453Z,796.62
2022-12-26T02:22:40.971Z,797.39
2022-12-26T02:23:39.117Z,798.17
2022-12-26T02:24:39.235Z,798.71
2022-12-26T02:25:39.232Z,799.30
2022-12-26T02:26:39.145Z,799.61
2022-12-26T02:27:38.374Z,799.45
2022-12-26T02:28:38.366Z,798.95
2022-12-26T02:29:39.276Z,798.39
2022-12-26T02:30:38.652Z,798.24
2022-12-26T02:31:38.349Z,798.07
2022-12-26T02:32:39.452Z,797.93
2022-12-26T02:33:39.405Z,797.20
2022-12-26T02:34:39.304Z,794.73
2022-12-26T02:35:39.210Z,793.10
2022-12-26T02:36:39.113Z,793.02
2022-12-26T02:37:38.531Z,793.28
2022-12-26T02:38:39.429Z,793.21
2022-12-26T02:39:45.744Z,793.35
2022-12-26T02:40:40.264Z,793.21
2022-12-26T02:41:38.596Z,792.80
2022-12-26T02:42:38.212Z,792.49
2022-12-26T02:43:39.203Z,792.52
2022-12-26T02:44:38.211Z,792.64
2022-12-26T02:45:38.203Z,793.12
2022-12-26T02:46:38.897Z,794.22
2022-12-26T02:47:39.075Z,794.27
2022-12-26T02:48:39.003Z,794.51
2022-12-26T02:49:38.126Z,791.46
2022-12-26T02:50:39.305Z,790.21
2022-12-26T02:51:38.098Z,789.24
2022-12-26T02:52:39.112Z,788.13
2022-12-26T02:53:39.019Z,787.88
2022-12-26T02:54:38.921Z,788.44
2022-12-26T02:55:38.069Z,789.38
2022-12-26T02:56:38.054Z,790.65
2022-12-26T02:57:38.611Z,792.18
2022-12-26T02:58:39.048Z,793.84
2022-12-26T02:59:56.543Z,795.21
2022-12-26T03:00:39.879Z,796.39
2022-12-26T03:01:38.835Z,798.22
2022-12-26T03:02:38.522Z,799.80
2022-12-26T03:03:37.959Z,800.39
2022-12-26T03:04:38.267Z,800.22
2022-12-26T03:05:37.971Z,800.01
2022-12-26T03:06:37.955Z,800.09
2022-12-26T03:07:38.690Z,800.63
2022-12-26T03:08:39.109Z,800.98
2022-12-26T03:09:37.893Z,801.38
2022-12-26T03:10:38.762Z,801.70
2022-12-26T03:11:38.831Z,802.06
2022-12-26T03:12:38.733Z,802.33
2022-12-26T03:13:38.551Z,802.73
2022-12-26T03:14:38.937Z,802.48
2022-12-26T03:15:38.157Z,802.21
2022-12-26T03:16:38.900Z,802.48
2022-12-26T03:17:37.814Z,802.00
2022-12-26T03:18:57.645Z,800.77
2022-12-26T03:19:38.770Z,800.05
2022-12-26T03:20:37.791Z,799.21
2022-12-26T03:21:38.891Z,798.55
2022-12-26T03:22:38.792Z,798.29
2022-12-26T03:23:38.535Z,798.38
2022-12-26T03:24:38.602Z,798.58
2022-12-26T03:25:38.400Z,799.59
2022-12-26T03:26:37.710Z,799.45
2022-12-26T03:27:37.714Z,799.34
2022-12-26T03:28:38.731Z,799.51
2022-12-26T03:29:38.413Z,799.36
2022-12-26T03:30:37.680Z,799.82
2022-12-26T03:31:37.929Z,800.10
2022-12-26T03:32:38.751Z,800.11
2022-12-26T03:33:37.634Z,800.04
2022-12-26T03:34:38.614Z,799.52
2022-12-26T03:35:38.589Z,799.38
2022-12-26T03:36:38.473Z,799.90
2022-12-26T03:37:48.793Z,801.28
2022-12-26T03:38:38.860Z,802.81
2022-12-26T03:39:37.554Z,804.68
2022-12-26T03:40:37.544Z,806.95
2022-12-26T03:41:37.534Z,808.98
2022-12-26T03:42:38.404Z,810.30
2022-12-26T03:43:38.316Z,810.63
2022-12-26T03:44:38.719Z,810.73
2022-12-26T03:45:38.641Z,811.18
2022-12-26T03:46:38.596Z,811.85
2022-12-26T03:47:38.438Z,812.60
2022-12-26T03:48:41.451Z,812.96
2022-12-26T03:49:38.249Z,812.53
2022-12-26T03:50:38.664Z,812.72
2022-12-26T03:51:37.417Z,812.93
2022-12-26T03:52:37.736Z,813.07
2022-12-26T03:53:38.385Z,813.34
2022-12-26T03:54:38.276Z,813.92
2022-12-26T03:55:38.192Z,814.88
2022-12-26T03:56:38.348Z,814.81
2022-12-26T03:57:38.403Z,815.68
2022-12-26T03:58:38.412Z,816.17
2022-12-26T03:59:38.343Z,816.16
2022-12-26T04:00:41.500Z,816.51
2022-12-26T04:01:37.406Z,816.86
2022-12-26T04:02:37.442Z,817.83
2022-12-26T04:03:37.413Z,818.70
2022-12-26T04:04:37.261Z,819.88
2022-12-26T04:05:37.546Z,821.35
2022-12-26T04:06:37.279Z,821.93
2022-12-26T04:07:38.056Z,820.90
2022-12-26T04:09:49.468Z,820.85
2022-12-26T04:11:59.688Z,820.12
2022-12-26T04:12:59.611Z,818.57
2022-12-26T04:14:06.871Z,816.77
2022-12-26T04:15:06.851Z,815.70
2022-12-26T04:15:59.610Z,813.82
2022-12-26T04:16:59.587Z,811.75
2022-12-26T04:17:59.565Z,810.29
2022-12-26T04:18:59.543Z,809.59
2022-12-26T04:19:59.539Z,809.21
2022-12-26T04:20:59.512Z,809.07
2022-12-26T04:21:59.518Z,808.78
2022-12-26T04:22:59.493Z,808.19
2022-12-26T04:23:59.501Z,807.65
2022-12-26T04:24:59.493Z,807.91
2022-12-26T04:25:59.465Z,808.30
2022-12-26T04:26:59.453Z,808.48
2022-12-26T04:27:59.442Z,808.18
2022-12-26T04:28:59.459Z,808.39
2022-12-26T04:29:59.414Z,808.69
2022-12-26T04:30:59.499Z,809.14
2022-12-26T04:31:59.415Z,809.91
2022-12-26T04:32:59.415Z,810.44
2022-12-26T04:33:59.368Z,810.58
2022-12-26T04:34:59.363Z,810.55
2022-12-26T04:35:59.351Z,811.14
2022-12-26T04:36:59.339Z,811.28
2022-12-26T04:37:59.314Z,812.29
2022-12-26T04:38:59.326Z,812.67
2022-12-26T04:39:59.319Z,811.57
2022-12-26T04:40:59.535Z,811.36
2022-12-26T04:41:59.286Z,811.73
2022-12-26T04:42:59.317Z,812.02
2022-12-26T04:43:59.252Z,812.56
2022-12-26T04:44:59.236Z,813.58
2022-12-26T04:45:59.253Z,814.47
2022-12-26T04:46:59.349Z,814.34
2022-12-26T04:47:59.223Z,814.80
2022-12-26T04:48:59.185Z,815.78
2022-12-26T04:49:59.186Z,816.37
2022-12-26T04:50:59.167Z,817.17
2022-12-26T04:51:59.185Z,817.26
2022-12-26T04:52:59.172Z,817.30
2022-12-26T04:53:59.147Z,817.59
2022-12-26T04:54:59.135Z,817.77
2022-12-26T04:55:59.112Z,816.85
2022-12-26T04:56:59.141Z,816.33
2022-12-26T04:57:59.112Z,816.55
2022-12-26T04:58:59.079Z,816.42
2022-12-26T04:59:59.077Z,816.47
2022-12-26T05:00:59.063Z,816.57
2022-12-26T05:01:59.225Z,816.90
2022-12-26T05:02:59.320Z,816.98
2022-12-26T05:03:59.043Z,817.26
2022-12-26T05:04:59.002Z,815.34
2022-12-26T05:05:58.999Z,810.28
2022-12-26T05:06:59.002Z,807.22
2022-12-26T05:07:58.969Z,807.08
2022-12-26T05:08:58.958Z,806.75
2022-12-26T05:09:58.987Z,807.51
2022-12-26T05:10:58.948Z,808.31
2022-12-26T05:11:58.942Z,808.99
2022-12-26T05:12:58.944Z,810.36
2022-12-26T05:13:58.954Z,811.65
2022-12-26T05:14:58.930Z,812.40
2022-12-26T05:15:58.948Z,813.58
2022-12-26T05:16:58.947Z,814.71
2022-12-26T05:17:58.884Z,816.22
2022-12-26T05:18:58.855Z,816.54
2022-12-26T05:19:58.831Z,815.94
2022-12-26T05:20:58.856Z,816.13
2022-12-26T05:21:58.830Z,816.85
2022-12-26T05:22:58.824Z,817.69
2022-12-26T05:23:58.800Z,818.00
2022-12-26T05:24:58.796Z,818.32
2022-12-26T05:25:58.785Z,818.30
2022-12-26T05:26:58.770Z,818.57
2022-12-26T05:27:58.765Z,818.75
2022-12-26T05:28:58.744Z,819.47
2022-12-26T05:29:58.726Z,821.15
2022-12-26T05:30:58.751Z,823.06
2022-12-26T05:31:58.877Z,825.42
2022-12-26T05:32:58.698Z,826.75
2022-12-26T05:33:58.689Z,827.81
2022-12-26T05:34:58.672Z,828.87
2022-12-26T05:35:58.661Z,830.45
2022-12-26T05:36:58.643Z,831.22
2022-12-26T05:37:58.644Z,831.74
2022-12-26T05:38:58.640Z,832.28
2022-12-26T05:39:58.604Z,832.75
2022-12-26T05:40:58.598Z,834.86
2022-12-26T05:41:58.594Z,836.60
2022-12-26T05:42:58.585Z,837.77
2022-12-26T05:43:58.592Z,838.61
2022-12-26T05:44:58.560Z,838.97
2022-12-26T05:45:58.543Z,839.66
2022-12-26T05:46:58.560Z,840.01
2022-12-26T05:47:58.524Z,840.04
2022-12-26T05:48:58.515Z,840.72
2022-12-26T05:49:58.503Z,840.95
2022-12-26T05:50:58.477Z,841.32
2022-12-26T05:51:58.487Z,841.09
2022-12-26T05:52:58.504Z,841.07
2022-12-26T05:53:58.457Z,841.98
2022-12-26T05:54:58.431Z,843.82
2022-12-26T05:55:58.426Z,844.89
2022-12-26T05:56:58.421Z,845.57
2022-12-26T05:57:58.416Z,846.02
2022-12-26T05:58:58.403Z,846.83
2022-12-26T05:59:58.405Z,847.43
2022-12-26T06:00:58.387Z,847.35
2022-12-26T06:01:58.452Z,847.15
2022-12-26T06:02:58.507Z,847.28
2022-12-26T06:03:58.422Z,846.90
2022-12-26T06:04:58.320Z,846.63
2022-12-26T06:05:58.321Z,847.17
2022-12-26T06:06:58.325Z,847.79
2022-12-26T06:07:58.296Z,847.81
2022-12-26T06:08:58.290Z,847.86
2022-12-26T06:09:58.287Z,847.71
2022-12-26T06:10:58.249Z,847.93
2022-12-26T06:11:58.246Z,847.90
2022-12-26T06:12:58.251Z,847.93
2022-12-26T06:13:58.256Z,847.90
2022-12-26T06:14:58.202Z,847.77
2022-12-26T06:16:06.504Z,848.03
2022-12-26T06:17:05.442Z,848.38
2022-12-26T06:17:58.188Z,848.90
2022-12-26T06:18:58.213Z,848.75
2022-12-26T06:19:58.145Z,848.91
2022-12-26T06:20:58.157Z,848.49
2022-12-26T06:21:58.150Z,848.31
2022-12-26T06:22:58.177Z,848.08
2022-12-26T06:23:58.124Z,848.01
2022-12-26T06:24:58.126Z,848.02
2022-12-26T06:25:58.098Z,848.15
2022-12-26T06:26:58.102Z,848.06
2022-12-26T06:27:58.060Z,848.20
2022-12-26T06:28:58.086Z,848.50
2022-12-26T06:29:58.051Z,848.66
2022-12-26T06:30:58.054Z,848.97
2022-12-26T06:31:58.080Z,849.63
2022-12-26T06:32:58.012Z,850.36
2022-12-26T06:33:58.006Z,850.94
2022-12-26T06:34:58.001Z,851.26
2022-12-26T06:35:58.002Z,851.94
2022-12-26T06:36:57.976Z,851.94
2022-12-26T06:37:57.944Z,852.29
2022-12-26T06:38:58.005Z,852.27
2022-12-26T06:39:57.926Z,852.11
2022-12-26T06:40:57.935Z,852.02
2022-12-26T06:41:57.909Z,851.75
2022-12-26T06:42:57.886Z,851.22
2022-12-26T06:43:57.892Z,851.46
2022-12-26T06:44:57.867Z,850.48
2022-12-26T06:45:58.180Z,848.45
2022-12-26T06:46:57.906Z,847.20
2022-12-26T06:47:57.835Z,846.72
2022-12-26T06:48:57.830Z,846.10
2022-12-26T06:49:57.864Z,844.81
2022-12-26T06:50:57.823Z,843.84
2022-12-26T06:51:57.820Z,842.71
2022-12-26T06:52:57.767Z,842.76
2022-12-26T06:53:57.767Z,843.01
2022-12-26T06:54:57.766Z,843.16
2022-12-26T06:55:57.747Z,843.07
2022-12-26T06:56:57.749Z,842.85
2022-12-26T06:57:57.721Z,842.38
2022-12-26T06:58:57.767Z,843.47
2022-12-26T06:59:57.715Z,844.26
2022-12-26T07:00:57.802Z,845.37
2022-12-26T07:01:57.868Z,847.60
2022-12-26T07:02:57.749Z,849.60
2022-12-26T07:03:57.692Z,850.87
2022-12-26T07:04:57.637Z,851.88
2022-12-26T07:05:57.625Z,852.97
2022-12-26T07:06:57.634Z,853.89
2022-12-26T07:07:57.619Z,854.96
2022-12-26T07:08:57.595Z,855.49
2022-12-26T07:09:57.582Z,856.24
2022-12-26T07:10:57.586Z,857.31
2022-12-26T07:11:57.552Z,858.16
2022-12-26T07:12:57.572Z,859.26
2022-12-26T07:13:57.550Z,860.84
2022-12-26T07:15:01.698Z,861.87
2022-12-26T07:15:57.586Z,862.72
2022-12-26T07:16:57.612Z,863.28
2022-12-26T07:17:57.496Z,864.12
2022-12-26T07:18:57.481Z,864.89
2022-12-26T07:19:57.513Z,865.99
2022-12-26T07:20:57.478Z,867.99
2022-12-26T07:21:57.444Z,868.88
2022-12-26T07:22:57.456Z,869.67
2022-12-26T07:23:57.423Z,870.24
2022-12-26T07:24:57.445Z,870.84
2022-12-26T07:25:57.401Z,871.71
2022-12-26T07:26:57.663Z,872.21
2022-12-26T07:27:57.391Z,872.66
2022-12-26T07:28:57.399Z,873.68
2022-12-26T07:29:57.363Z,874.68
2022-12-26T07:30:57.352Z,875.46
2022-12-26T07:31:57.477Z,876.10
2022-12-26T07:32:57.327Z,876.70
2022-12-26T07:33:57.334Z,877.01
2022-12-26T07:34:57.317Z,877.39
2022-12-26T07:35:57.283Z,878.23
2022-12-26T07:36:57.271Z,878.73
2022-12-26T07:37:57.277Z,879.56
2022-12-26T07:38:57.249Z,879.38
2022-12-26T07:39:59.322Z,880.37
2022-12-26T07:40:57.247Z,880.95
2022-12-26T07:41:57.235Z,881.76
2022-12-26T07:42:57.218Z,882.47
2022-12-26T07:43:57.208Z,883.79
2022-12-26T07:44:57.203Z,884.72
2022-12-26T07:45:57.198Z,886.10
2022-12-26T07:46:57.152Z,886.70
2022-12-26T07:47:57.165Z,887.91
2022-12-26T07:48:57.185Z,889.29
2022-12-26T07:49:57.149Z,890.79
2022-12-26T07:50:57.104Z,892.35
2022-12-26T07:51:57.103Z,894.25
2022-12-26T07:52:57.087Z,895.07
2022-12-26T07:53:57.087Z,895.23
2022-12-26T07:54:57.096Z,895.50
2022-12-26T07:55:57.058Z,896.54
2022-12-26T07:57:09.306Z,898.09
2022-12-26T07:57:58.051Z,899.15
2022-12-26T07:58:57.044Z,900.28
2022-12-26T07:59:57.029Z,901.30
2022-12-26T08:00:57.018Z,902.43
2022-12-26T08:01:57.158Z,902.35
2022-12-26T08:03:02.728Z,901.65
2022-12-26T08:03:58.155Z,900.71
2022-12-26T08:04:56.951Z,899.22
2022-12-26T08:05:56.961Z,897.96
2022-12-26T08:06:56.959Z,896.82
2022-12-26T08:07:56.921Z,895.43
2022-12-26T08:08:56.943Z,893.86
2022-12-26T08:09:56.896Z,892.61
2022-12-26T08:10:56.917Z,891.97
2022-12-26T08:11:56.889Z,892.31
2022-12-26T08:12:56.878Z,893.84
2022-12-26T08:13:56.865Z,894.97
2022-12-26T08:14:56.839Z,897.42
2022-12-26T08:15:56.839Z,898.85
2022-12-26T08:16:56.915Z,898.92
2022-12-26T08:17:56.812Z,899.54
2022-12-26T08:18:56.810Z,901.20
2022-12-26T08:19:56.785Z,902.57
2022-12-26T08:20:56.772Z,902.32
2022-12-26T08:22:05.024Z,900.43
2022-12-26T08:24:04.025Z,896.41
2022-12-26T08:24:56.716Z,898.60
2022-12-26T08:25:56.704Z,899.02
2022-12-26T08:26:56.704Z,896.28
2022-12-26T08:27:56.693Z,894.32
2022-12-26T08:28:56.694Z,893.60
2022-12-26T08:29:56.655Z,895.14
2022-12-26T08:30:56.699Z,898.81
2022-12-26T08:31:56.645Z,903.59
2022-12-26T08:32:56.642Z,905.72
2022-12-26T08:33:56.637Z,902.76
2022-12-26T08:34:56.616Z,897.46
2022-12-26T08:35:56.628Z,894.41
2022-12-26T08:36:56.600Z,893.53
2022-12-26T08:37:56.583Z,893.97
2022-12-26T08:38:56.631Z,897.76
2022-12-26T08:39:56.546Z,904.07
2022-12-26T08:40:56.550Z,905.76
2022-12-26T08:41:56.563Z,904.65
2022-12-26T08:43:21.569Z,903.82
2022-12-26T08:44:57.535Z,904.98
2022-12-26T08:45:56.530Z,906.70
2022-12-26T08:46:56.475Z,908.98
2022-12-26T08:47:56.477Z,910.46
2022-12-26T08:48:56.470Z,911.48
2022-12-26T08:49:56.447Z,912.83
2022-12-26T08:50:56.426Z,912.28
2022-12-26T08:51:56.425Z,911.06
2022-12-26T08:52:56.406Z,911.74
2022-12-26T08:53:56.389Z,914.35
2022-12-26T08:54:56.415Z,913.50
2022-12-26T08:55:56.409Z,908.39
2022-12-26T08:56:56.361Z,901.90
2022-12-26T08:57:56.347Z,897.56
2022-12-26T08:58:56.413Z,895.57
2022-12-26T08:59:56.343Z,895.41
2022-12-26T09:00:56.462Z,897.19
2022-12-26T09:01:56.648Z,899.01
2022-12-26T09:02:56.619Z,902.51
2022-12-26T09:03:56.292Z,908.11
2022-12-26T09:04:56.299Z,913.67
2022-12-26T09:05:57.072Z,920.33
2022-12-26T09:06:56.240Z,924.68
2022-12-26T09:07:56.238Z,925.93
2022-12-26T09:08:57.257Z,924.20
2022-12-26T09:09:56.222Z,921.09
2022-12-26T09:10:56.202Z,918.40
2022-12-26T09:11:56.190Z,918.45
2022-12-26T09:12:56.190Z,921.49
2022-12-26T09:13:56.204Z,927.11
2022-12-26T09:14:56.191Z,932.95
2022-12-26T09:15:56.154Z,938.56
2022-12-26T09:16:56.195Z,942.15
2022-12-26T09:17:56.126Z,943.20
2022-12-26T09:18:56.091Z,942.27
2022-12-26T09:19:56.139Z,940.08
2022-12-26T09:20:56.076Z,941.30
2022-12-26T09:21:56.074Z,941.32
2022-12-26T09:22:56.062Z,939.08
2022-12-26T09:23:56.063Z,936.58
2022-12-26T09:24:56.078Z,934.52
2022-12-26T09:25:56.020Z,932.95
2022-12-26T09:26:56.039Z,930.42
2022-12-26T09:27:59.349Z,929.74
2022-12-26T09:28:55.991Z,929.60
2022-12-26T09:29:56.001Z,929.15
2022-12-26T09:30:56.008Z,925.32
2022-12-26T09:31:55.956Z,922.11
2022-12-26T09:32:55.923Z,919.41
2022-12-26T09:33:55.939Z,916.15
2022-12-26T09:34:55.943Z,913.71
2022-12-26T09:35:59.798Z,911.41
2022-12-26T09:36:56.903Z,909.21
2022-12-26T09:37:55.897Z,907.05
2022-12-26T09:38:55.883Z,905.99
2022-12-26T09:39:55.897Z,904.96
2022-12-26T09:40:55.864Z,905.72
2022-12-26T09:41:55.836Z,905.30
2022-12-26T09:42:55.827Z,905.90
2022-12-26T09:43:55.823Z,906.86
2022-12-26T09:44:55.849Z,907.27
2022-12-26T09:45:55.951Z,905.16
2022-12-26T09:46:55.780Z,903.73
2022-12-26T09:47:55.815Z,902.05
2022-12-26T09:48:55.768Z,900.56
2022-12-26T09:49:55.763Z,896.48
2022-12-26T09:50:56.027Z,894.76
2022-12-26T09:51:55.734Z,891.41
2022-12-26T09:52:55.716Z,888.49
2022-12-26T09:53:55.706Z,885.64
2022-12-26T09:54:55.698Z,884.28
2022-12-26T09:55:55.676Z,884.56
2022-12-26T09:57:04.618Z,884.44
2022-12-26T09:57:56.694Z,885.29
2022-12-26T09:58:55.665Z,885.63
2022-12-26T09:59:55.645Z,893.06
2022-12-26T10:00:55.635Z,889.44
2022-12-26T10:01:55.685Z,908.72
2022-12-26T10:02:55.617Z,887.64
2022-12-26T10:03:55.604Z,887.17
2022-12-26T10:04:55.679Z,888.18
2022-12-26T10:05:55.580Z,888.13
2022-12-26T10:06:55.553Z,888.28
2022-12-26T10:07:55.538Z,886.81
2022-12-26T10:08:55.558Z,883.82
2022-12-26T10:09:55.524Z,883.30
2022-12-26T10:10:55.525Z,884.09
2022-12-26T10:11:55.530Z,886.70
2022-12-26T10:12:55.480Z,882.05
2022-12-26T10:13:55.490Z,883.42
2022-12-26T10:14:55.493Z,885.14
2022-12-26T10:15:55.499Z,885.94
2022-12-26T10:16:55.443Z,884.16
2022-12-26T10:17:55.424Z,882.05
2022-12-26T10:18:55.456Z,881.81
2022-12-26T10:19:55.438Z,880.22
2022-12-26T10:20:55.409Z,877.50
2022-12-26T10:21:55.409Z,878.48
2022-12-26T10:22:55.381Z,875.02
2022-12-26T10:23:55.386Z,871.76
2022-12-26T10:24:55.367Z,870.46
2022-12-26T10:25:55.342Z,871.73
2022-12-26T10:26:55.333Z,870.73
2022-12-26T10:27:55.325Z,871.68
2022-12-26T10:28:55.345Z,875.67
2022-12-26T10:29:55.314Z,878.45
2022-12-26T10:30:55.366Z,880.60
2022-12-26T10:31:55.304Z,882.81
2022-12-26T10:32:55.287Z,877.62
2022-12-26T10:33:55.272Z,874.60
2022-12-26T10:34:59.065Z,875.28
2022-12-26T10:35:55.242Z,872.94
2022-12-26T10:36:55.221Z,872.96
2022-12-26T10:37:55.211Z,872.29
2022-12-26T10:38:55.221Z,875.18
2022-12-26T10:39:55.202Z,876.52
2022-12-26T10:40:55.202Z,878.77
2022-12-26T10:41:55.177Z,876.49
2022-12-26T10:42:55.163Z,874.85
2022-12-26T10:43:55.143Z,873.09
2022-12-26T10:44:55.149Z,879.13
2022-12-26T10:45:55.155Z,874.38
2022-12-26T10:46:55.117Z,879.28
2022-12-26T10:47:55.095Z,875.58
2022-12-26T10:48:55.118Z,874.25
2022-12-26T10:49:55.094Z,874.39
2022-12-26T10:50:55.082Z,881.72
2022-12-26T10:51:55.065Z,891.12
2022-12-26T10:52:55.091Z,895.73
2022-12-26T10:53:55.058Z,885.61
2022-12-26T10:55:29.470Z,879.48
2022-12-26T10:55:56.036Z,864.12
2022-12-26T10:56:55.043Z,863.05
2022-12-26T10:57:54.991Z,865.52
2022-12-26T10:58:54.986Z,866.85
2022-12-26T10:59:55.039Z,870.04
2022-12-26T11:00:54.976Z,875.88
2022-12-26T11:01:55.049Z,877.95
2022-12-26T11:02:55.030Z,889.71
2022-12-26T11:03:55.022Z,886.23
2022-12-26T11:05:15.526Z,887.46
2022-12-26T11:06:11.384Z,881.80
2022-12-26T11:06:55.901Z,901.85
2022-12-26T11:07:54.905Z,908.13
2022-12-26T11:08:54.884Z,895.62
2022-12-26T11:09:54.889Z,900.41
2022-12-26T11:10:54.865Z,905.03
2022-12-26T11:11:54.852Z,893.64
2022-12-26T11:12:54.855Z,887.47
2022-12-26T11:14:01.300Z,875.23
2022-12-26T11:14:55.828Z,860.80
2022-12-26T11:15:54.902Z,859.37
2022-12-26T11:16:54.795Z,862.87
2022-12-26T11:17:54.780Z,858.43
2022-12-26T11:18:54.781Z,861.53
2022-12-26T11:19:54.760Z,857.00
2022-12-26T11:20:54.752Z,855.66
2022-12-26T11:21:54.720Z,855.17
2022-12-26T11:22:54.732Z,855.50
2022-12-26T11:23:54.726Z,853.53
2022-12-26T11:24:54.713Z,851.05
2022-12-26T11:25:54.690Z,851.98
2022-12-26T11:26:54.701Z,850.13
2022-12-26T11:27:54.676Z,852.41
2022-12-26T11:28:54.660Z,854.28
2022-12-26T11:29:54.642Z,855.39
2022-12-26T11:30:54.686Z,854.99
2022-12-26T11:31:54.622Z,857.57
2022-12-26T11:32:54.612Z,853.96
2022-12-26T11:33:54.669Z,850.53
2022-12-26T11:34:54.609Z,849.32
2022-12-26T11:35:54.571Z,850.32
2022-12-26T11:36:54.571Z,850.96
2022-12-26T11:37:54.566Z,849.83
2022-12-26T11:38:54.606Z,849.74
2022-12-26T11:39:54.534Z,847.57
2022-12-26T11:40:54.568Z,844.45
2022-12-26T11:41:54.533Z,841.20
2022-12-26T11:42:54.504Z,839.38
2022-12-26T11:43:54.493Z,839.73
2022-12-26T11:44:54.495Z,835.41
2022-12-26T11:45:54.472Z,830.77
2022-12-26T11:46:54.511Z,827.67
2022-12-26T11:47:54.457Z,825.49
2022-12-26T11:48:54.472Z,822.60
2022-12-26T11:49:54.443Z,821.46
2022-12-26T11:50:54.399Z,820.90
2022-12-26T11:51:59.107Z,821.94
2022-12-26T11:52:55.387Z,822.49
2022-12-26T11:53:54.454Z,822.65
2022-12-26T11:54:54.366Z,823.81
2022-12-26T11:55:54.364Z,823.78
2022-12-26T11:56:54.346Z,823.23
2022-12-26T11:57:58.518Z,821.94
2022-12-26T11:58:54.383Z,819.14
2022-12-26T11:59:54.318Z,816.75
2022-12-26T12:00:54.321Z,815.73
2022-12-26T12:01:54.336Z,814.37
2022-12-26T12:02:54.330Z,812.79
2022-12-26T12:03:54.327Z,811.95
2022-12-26T12:04:54.259Z,810.89
2022-12-26T12:05:54.262Z,811.06
2022-12-26T12:06:54.260Z,811.78
2022-12-26T12:07:54.222Z,813.71
2022-12-26T12:08:54.209Z,814.42
2022-12-26T12:09:54.198Z,815.90
2022-12-26T12:10:54.188Z,818.32
2022-12-26T12:11:54.197Z,820.63
2022-12-26T12:12:54.167Z,823.45
2022-12-26T12:13:54.163Z,825.69
2022-12-26T12:14:54.904Z,825.17
2022-12-26T12:15:54.139Z,823.99
2022-12-26T12:16:54.181Z,822.41
2022-12-26T12:17:54.116Z,819.92
2022-12-26T12:18:54.109Z,817.51
2022-12-26T12:19:54.089Z,816.88
2022-12-26T12:20:54.077Z,815.85
2022-12-26T12:21:54.082Z,814.96
2022-12-26T12:22:54.070Z,815.56
2022-12-26T12:23:54.063Z,817.15
2022-12-26T12:24:54.041Z,818.12
2022-12-26T12:25:54.021Z,819.99
2022-12-26T12:26:58.741Z,823.11
2022-12-26T12:27:54.016Z,824.51
2022-12-26T12:28:53.999Z,826.99
2022-12-26T12:29:53.998Z,830.36
2022-12-26T12:30:53.951Z,832.43
2022-12-26T12:31:53.974Z,836.49
2022-12-26T12:32:57.258Z,841.87